Terminal Aerodrome Forecast
Issued by NWS Cleveland, OH

Home | Current Version | Previous Version | Text Only | Print | Product List | Glossary On
Versions: 1 2 3 4 5 6 7 8 9 10 11 12 13 14 15 16 17 18
791
FTUS41 KCLE 090915 AAA
TAFERI
TAF AMD
KERI 090915Z 0909/1006 24006KT P6SM SCT006 OVC012
     FM091600 24010KT 6SM -SHSN OVC012
     FM092000 24010G18KT P6SM OVC020
     FM100300 24010G18KT 3SM -SHSN OVC012=

USA.gov is the U.S. government's official web portal to all federal, state and local government web resources and services.